createdAt,value
2018-04-23T00:00:38.812Z,87.41
2018-04-23T00:01:38.835Z,87.60
2018-04-23T00:02:38.849Z,87.64
2018-04-23T00:03:38.871Z,87.26
2018-04-23T00:04:38.892Z,87.45
2018-04-23T00:05:38.909Z,87.60
2018-04-23T00:06:38.932Z,87.98
2018-04-23T00:07:38.948Z,87.93
2018-04-23T00:08:39.019Z,87.41
2018-04-23T00:09:38.985Z,87.74
2018-04-23T00:10:39.000Z,87.98
2018-04-23T00:11:39.105Z,87.70
2018-04-23T00:12:39.040Z,87.50
2018-04-23T00:13:39.058Z,87.50
2018-04-23T00:14:39.080Z,87.79
2018-04-23T00:15:39.096Z,87.79
2018-04-23T00:16:39.115Z,87.98
2018-04-23T00:17:39.225Z,87.98
2018-04-23T00:18:39.154Z,87.98
2018-04-23T00:19:39.176Z,88.75
2018-04-23T00:20:39.245Z,88.46
2018-04-23T00:21:39.209Z,88.56
2018-04-23T00:22:39.234Z,87.88
2018-04-23T00:23:39.269Z,88.56
2018-04-23T00:24:39.269Z,87.88
2018-04-23T00:25:39.285Z,88.46
2018-04-23T00:26:39.304Z,88.46
2018-04-23T00:27:39.327Z,87.70
2018-04-23T00:28:39.348Z,88.08
2018-04-23T00:29:39.396Z,88.27
2018-04-23T00:30:39.386Z,87.88
2018-04-23T00:31:39.404Z,88.65
2018-04-23T00:32:39.473Z,88.75
2018-04-23T00:33:39.436Z,87.98
2018-04-23T00:34:39.458Z,88.84
2018-04-23T00:35:39.554Z,88.84
2018-04-23T00:36:39.499Z,88.75
2018-04-23T00:37:39.519Z,88.65
2018-04-23T00:38:39.586Z,89.04
2018-04-23T00:39:39.550Z,88.37
2018-04-23T00:40:39.568Z,88.27
2018-04-23T00:41:39.673Z,88.75
2018-04-23T00:42:39.605Z,88.17
2018-04-23T00:43:39.632Z,88.08
2018-04-23T00:44:39.649Z,88.56
2018-04-23T00:45:39.668Z,88.27
2018-04-23T00:46:39.686Z,87.88
2018-04-23T00:47:39.699Z,87.79
2018-04-23T00:48:39.719Z,87.98
2018-04-23T00:49:39.749Z,87.88
2018-04-23T00:50:39.764Z,88.46
2018-04-23T00:51:39.777Z,88.84
2018-04-23T00:52:39.794Z,88.84
2018-04-23T00:53:39.813Z,88.56
2018-04-23T00:54:39.830Z,88.75
2018-04-23T00:55:39.856Z,88.65
2018-04-23T00:56:39.924Z,88.46
2018-04-23T00:57:39.886Z,89.32
2018-04-23T00:58:39.905Z,89.32
2018-04-23T00:59:39.925Z,89.37
2018-04-23T01:00:39.951Z,89.18
2018-04-23T01:01:39.969Z,89.18
2018-04-23T01:02:40.034Z,89.09
2018-04-23T01:03:40.002Z,88.32
2018-04-23T01:04:40.021Z,88.23
2018-04-23T01:05:40.044Z,88.61
2018-04-23T01:06:40.058Z,89.28
2018-04-23T01:07:40.081Z,90.43
2018-04-23T01:08:40.100Z,90.33
2018-04-23T01:09:40.118Z,89.57
2018-04-23T01:10:40.136Z,90.62
2018-04-23T01:11:40.151Z,90.05
2018-04-23T01:12:40.187Z,89.28
2018-04-23T01:13:40.194Z,90.39
2018-04-23T01:14:40.263Z,90.58
2018-04-23T01:15:40.233Z,91.29
2018-04-23T01:16:40.254Z,90.96
2018-04-23T01:17:40.270Z,91.10
2018-04-23T01:18:40.285Z,91.19
2018-04-23T01:19:40.324Z,91.05
2018-04-23T01:20:40.375Z,91.49
2018-04-23T01:21:40.343Z,91.44
2018-04-23T01:22:40.358Z,91.86
2018-04-23T01:23:40.384Z,91.72
2018-04-23T01:24:40.399Z,91.53
2018-04-23T01:25:40.420Z,91.10
2018-04-23T01:26:40.434Z,91.44
2018-04-23T01:27:40.460Z,91.77
2018-04-23T01:28:40.475Z,91.77
2018-04-23T01:29:40.500Z,91.19
2018-04-23T01:30:40.512Z,91.19
2018-04-23T01:31:40.533Z,91.19
2018-04-23T01:32:40.552Z,91.86
2018-04-23T01:33:40.574Z,91.63
2018-04-23T01:34:40.591Z,92.21
2018-04-23T01:35:40.681Z,91.96
2018-04-23T01:36:40.624Z,91.53
2018-04-23T01:37:40.646Z,91.34
2018-04-23T01:38:40.664Z,91.44
2018-04-23T01:39:40.684Z,91.96
2018-04-23T01:40:40.697Z,91.82
2018-04-23T01:41:40.824Z,92.21
2018-04-23T01:42:40.736Z,92.54
2018-04-23T01:43:40.762Z,92.15
2018-04-23T01:44:40.774Z,91.92
2018-04-23T01:45:40.793Z,90.96
2018-04-23T01:46:40.815Z,91.92
2018-04-23T01:47:40.832Z,90.58
2018-04-23T01:48:40.851Z,90.86
2018-04-23T01:49:40.871Z,91.63
2018-04-23T01:50:40.889Z,90.96
2018-04-23T01:51:40.904Z,91.53
2018-04-23T01:52:40.923Z,91.53
2018-04-23T01:53:41.012Z,91.44
2018-04-23T01:54:40.966Z,91.92
2018-04-23T01:55:40.985Z,92.58
2018-04-23T01:56:41.050Z,92.97
2018-04-23T01:57:41.029Z,92.97
2018-04-23T01:58:41.036Z,92.58
2018-04-23T01:59:41.083Z,93.07
2018-04-23T02:00:41.080Z,92.97
2018-04-23T02:01:41.094Z,91.72
2018-04-23T02:02:41.161Z,91.82
2018-04-23T02:03:41.138Z,91.25
2018-04-23T02:04:41.151Z,91.82
2018-04-23T02:05:41.232Z,91.92
2018-04-23T02:06:41.192Z,92.11
2018-04-23T02:07:41.207Z,93.26
2018-04-23T02:08:41.275Z,92.40
2018-04-23T02:09:41.247Z,91.53
2018-04-23T02:10:41.261Z,93.16
2018-04-23T02:11:41.281Z,93.07
2018-04-23T02:12:41.306Z,93.35
2018-04-23T02:13:41.320Z,92.40
2018-04-23T02:14:41.386Z,92.40
2018-04-23T02:15:41.357Z,93.07
2018-04-23T02:16:41.382Z,92.58
2018-04-23T02:17:41.398Z,91.72
2018-04-23T02:18:41.410Z,92.21
2018-04-23T02:19:41.437Z,92.58
2018-04-23T02:20:41.451Z,92.58
2018-04-23T02:21:41.467Z,92.11
2018-04-23T02:22:41.487Z,92.21
2018-04-23T02:23:41.509Z,92.01
2018-04-23T02:24:41.529Z,91.82
2018-04-23T02:25:41.541Z,91.72
2018-04-23T02:26:41.560Z,93.16
2018-04-23T02:27:41.585Z,92.87
2018-04-23T02:28:41.600Z,92.97
2018-04-23T02:29:41.618Z,93.54
2018-04-23T02:30:41.637Z,92.87
2018-04-23T02:31:41.658Z,92.78
2018-04-23T02:32:41.689Z,92.97
2018-04-23T02:33:41.698Z,92.87
2018-04-23T02:34:41.722Z,93.45
2018-04-23T02:35:41.738Z,93.45
2018-04-23T02:36:41.750Z,93.35
2018-04-23T02:37:41.766Z,94.31
2018-04-23T02:38:41.793Z,94.60
2018-04-23T02:39:41.812Z,93.64
2018-04-23T02:40:41.827Z,93.93
2018-04-23T02:41:41.851Z,93.64
2018-04-23T02:42:41.861Z,94.40
2018-04-23T02:43:41.882Z,94.02
2018-04-23T02:44:41.949Z,94.31
2018-04-23T02:45:41.915Z,94.40
2018-04-23T02:46:41.937Z,93.83
2018-04-23T02:47:41.956Z,93.07
2018-04-23T02:48:41.978Z,93.02
2018-04-23T02:49:41.996Z,93.07
2018-04-23T02:50:42.059Z,93.30
2018-04-23T02:51:42.035Z,93.11
2018-04-23T02:52:42.052Z,92.97
2018-04-23T02:53:42.071Z,92.97
2018-04-23T02:54:42.086Z,92.82
2018-04-23T02:55:42.104Z,93.45
2018-04-23T02:56:42.174Z,93.45
2018-04-23T02:57:42.142Z,93.45
2018-04-23T02:58:42.164Z,94.60
2018-04-23T02:59:42.179Z,94.50
2018-04-23T03:00:42.193Z,95.07
2018-04-23T03:01:42.210Z,96.13
2018-04-23T03:03:49.415Z,96.70
2018-04-23T03:04:42.332Z,97.47
2018-04-23T03:05:42.330Z,97.85
2018-04-23T03:06:42.329Z,98.05
2018-04-23T03:07:42.393Z,97.95
2018-04-23T03:08:42.438Z,98.62
2018-04-23T03:09:42.388Z,99.29
2018-04-23T03:10:42.385Z,99.10
2018-04-23T03:11:42.394Z,99.99
2018-04-23T03:12:42.414Z,99.67
2018-04-23T03:13:42.437Z,99.99
2018-04-23T03:14:42.457Z,99.99
2018-04-23T03:15:42.471Z,99.99
2018-04-23T03:16:42.491Z,99.99
2018-04-23T03:17:42.503Z,99.99
2018-04-23T03:18:42.523Z,99.99
2018-04-23T03:19:42.541Z,99.99
2018-04-23T03:20:42.565Z,99.99
2018-04-23T03:21:42.585Z,99.99
2018-04-23T03:22:42.605Z,99.99
2018-04-23T03:23:42.614Z,99.99
2018-04-23T03:24:42.646Z,99.99
2018-04-23T03:25:42.654Z,99.99
2018-04-23T03:26:42.677Z,99.99
2018-04-23T03:27:42.690Z,99.99
2018-04-23T03:28:42.713Z,99.99
2018-04-23T03:29:42.723Z,99.99
2018-04-23T03:30:42.748Z,99.99
2018-04-23T03:31:42.764Z,99.99
2018-04-23T03:32:42.786Z,99.99
2018-04-23T03:33:42.804Z,99.99
2018-04-23T03:34:42.816Z,99.99
2018-04-23T03:35:42.839Z,99.99
2018-04-23T03:36:42.858Z,99.99
2018-04-23T03:37:42.875Z,99.99
2018-04-23T03:38:42.891Z,99.99
2018-04-23T03:39:42.912Z,99.99
2018-04-23T03:40:42.932Z,99.99
2018-04-23T03:41:42.949Z,99.99
2018-04-23T03:42:42.977Z,99.99
2018-04-23T03:43:42.989Z,99.99
2018-04-23T03:44:43.005Z,99.99
2018-04-23T03:45:43.026Z,99.99
2018-04-23T03:46:43.048Z,99.99
2018-04-23T03:47:43.101Z,99.99
2018-04-23T03:48:43.078Z,99.99
2018-04-23T03:49:43.095Z,99.99
2018-04-23T03:50:43.116Z,99.99
2018-04-23T03:51:43.136Z,99.99
2018-04-23T03:52:43.153Z,99.99
2018-04-23T03:53:43.243Z,99.99
2018-04-23T03:54:43.189Z,99.99
2018-04-23T03:55:43.205Z,99.99
2018-04-23T03:56:43.227Z,99.99
2018-04-23T03:57:43.269Z,99.99
2018-04-23T03:58:43.263Z,99.99
2018-04-23T03:59:43.367Z,99.99
2018-04-23T04:00:43.300Z,99.99
2018-04-23T04:01:43.316Z,99.99
2018-04-23T04:02:43.340Z,99.99
2018-04-23T04:03:43.357Z,99.99
2018-04-23T04:04:43.378Z,99.99
2018-04-23T04:05:43.416Z,99.99
2018-04-23T04:06:43.409Z,99.99
2018-04-23T04:07:43.427Z,99.99
2018-04-23T04:08:43.447Z,99.99
2018-04-23T04:09:43.465Z,99.99
2018-04-23T04:10:43.481Z,99.99
2018-04-23T04:11:43.564Z,99.99
2018-04-23T04:12:43.520Z,99.99
2018-04-23T04:13:43.537Z,99.99
2018-04-23T04:14:43.557Z,99.99
2018-04-23T04:15:43.576Z,99.99
2018-04-23T04:16:43.592Z,99.99
2018-04-23T04:17:43.655Z,99.99
2018-04-23T04:18:43.635Z,99.99
2018-04-23T04:19:43.649Z,99.99
2018-04-23T04:20:43.665Z,99.99
2018-04-23T04:21:43.682Z,99.99
2018-04-23T04:22:43.701Z,99.99
2018-04-23T04:23:43.803Z,99.99
2018-04-23T04:24:43.787Z,99.99
2018-04-23T04:25:43.760Z,99.99
2018-04-23T04:26:43.781Z,99.99
2018-04-23T04:27:43.796Z,99.99
2018-04-23T04:28:43.810Z,99.99
2018-04-23T04:29:43.830Z,99.99
2018-04-23T04:30:43.850Z,99.99
2018-04-23T04:31:43.872Z,99.99
2018-04-23T04:32:43.891Z,99.99
2018-04-23T04:33:43.904Z,99.99
2018-04-23T04:34:43.919Z,99.99
2018-04-23T04:35:44.061Z,99.99
2018-04-23T04:36:43.956Z,99.99
2018-04-23T04:37:43.979Z,99.99
2018-04-23T04:38:43.996Z,99.99
2018-04-23T04:39:44.011Z,99.99
2018-04-23T04:40:44.032Z,99.99
2018-04-23T04:41:44.052Z,99.99
2018-04-23T04:42:44.072Z,99.99
2018-04-23T04:43:44.096Z,99.99
2018-04-23T04:44:44.114Z,99.99
2018-04-23T04:45:44.121Z,99.99
2018-04-23T04:46:44.138Z,99.99
2018-04-23T04:47:44.165Z,99.99
2018-04-23T04:48:44.184Z,99.99
2018-04-23T04:49:44.195Z,99.99
2018-04-23T04:50:44.213Z,99.99
2018-04-23T04:51:44.235Z,99.99
2018-04-23T04:52:44.253Z,99.99
2018-04-23T04:53:44.271Z,99.99
2018-04-23T04:54:44.288Z,99.99
2018-04-23T04:55:44.316Z,99.99
2018-04-23T04:56:44.326Z,99.99
2018-04-23T04:57:44.338Z,99.99
2018-04-23T04:58:44.363Z,99.99
2018-04-23T04:59:44.380Z,99.99
2018-04-23T05:00:44.397Z,99.99
2018-04-23T05:01:44.420Z,99.99
2018-04-23T05:02:44.435Z,99.99
2018-04-23T05:03:44.448Z,99.99
2018-04-23T05:04:44.469Z,99.99
2018-04-23T05:05:44.487Z,99.99
2018-04-23T05:06:44.503Z,99.99
2018-04-23T05:07:44.527Z,99.99
2018-04-23T05:08:44.542Z,99.99
2018-04-23T05:09:44.557Z,99.99
2018-04-23T05:10:44.604Z,99.99
2018-04-23T05:11:44.645Z,99.99
2018-04-23T05:12:44.613Z,99.99
2018-04-23T05:13:44.632Z,99.99
2018-04-23T05:14:44.652Z,99.99
2018-04-23T05:15:44.668Z,99.99
2018-04-23T05:16:44.692Z,99.99
2018-04-23T05:17:44.711Z,99.99
2018-04-23T05:18:44.724Z,99.99
2018-04-23T05:19:44.748Z,99.99
2018-04-23T05:20:44.763Z,99.99
2018-04-23T05:21:44.778Z,99.99
2018-04-23T05:22:44.796Z,99.99
2018-04-23T05:23:44.907Z,99.99
2018-04-23T05:24:44.838Z,99.99
2018-04-23T05:25:44.853Z,99.99
2018-04-23T05:26:44.870Z,99.99
2018-04-23T05:27:44.892Z,99.99
2018-04-23T05:28:44.909Z,99.99
2018-04-23T05:29:44.937Z,99.99
2018-04-23T05:30:44.940Z,99.99
2018-04-23T05:31:44.960Z,99.99
2018-04-23T05:32:44.983Z,99.99
2018-04-23T05:33:44.994Z,99.99
2018-04-23T05:34:45.039Z,99.99
2018-04-23T05:35:45.036Z,99.99
2018-04-23T05:36:45.059Z,99.99
2018-04-23T05:37:45.076Z,99.99
2018-04-23T05:38:45.088Z,99.99
2018-04-23T05:39:45.109Z,99.99
2018-04-23T05:40:45.171Z,99.99
2018-04-23T05:41:45.144Z,99.99
2018-04-23T05:42:45.168Z,99.99
2018-04-23T05:43:45.181Z,99.99
2018-04-23T05:44:45.204Z,99.99
2018-04-23T05:45:45.220Z,99.99
2018-04-23T05:46:45.313Z,99.99
2018-04-23T05:47:45.253Z,99.99
2018-04-23T05:48:45.275Z,99.99
2018-04-23T05:49:45.290Z,99.99
2018-04-23T05:50:45.314Z,99.99
2018-04-23T05:51:45.330Z,99.99
2018-04-23T05:52:45.375Z,99.99
2018-04-23T05:53:45.361Z,99.81
2018-04-23T05:54:45.386Z,99.99
2018-04-23T05:55:45.401Z,99.99
2018-04-23T05:56:45.416Z,99.62
2018-04-23T05:57:45.439Z,99.72
2018-04-23T05:58:45.538Z,99.99
2018-04-23T05:59:45.476Z,99.99
2018-04-23T06:00:45.493Z,99.99
2018-04-23T06:01:45.506Z,99.99
2018-04-23T06:02:45.530Z,99.99
2018-04-23T06:03:45.548Z,99.81
2018-04-23T06:04:45.629Z,99.99
2018-04-23T06:05:45.591Z,99.99
2018-04-23T06:06:45.601Z,99.99
2018-04-23T06:07:45.619Z,99.99
2018-04-23T06:08:45.686Z,99.99
2018-04-23T06:09:45.657Z,99.99
2018-04-23T06:10:45.697Z,99.99
2018-04-23T06:11:45.693Z,99.99
2018-04-23T06:12:45.707Z,99.99
2018-04-23T06:13:45.723Z,99.99
2018-04-23T06:14:45.805Z,99.99
2018-04-23T06:15:45.763Z,99.99
2018-04-23T06:16:45.785Z,99.99
2018-04-23T06:17:45.803Z,99.99
2018-04-23T06:18:45.819Z,99.99
2018-04-23T06:19:45.881Z,99.99
2018-04-23T06:20:45.858Z,99.99
2018-04-23T06:21:45.872Z,99.99
2018-04-23T06:22:45.895Z,99.99
2018-04-23T06:23:45.904Z,99.99
2018-04-23T06:24:45.926Z,99.99
2018-04-23T06:25:45.946Z,99.99
2018-04-23T06:26:45.959Z,99.99
2018-04-23T06:27:45.982Z,99.99
2018-04-23T06:28:46.001Z,99.99
2018-04-23T06:29:46.020Z,99.99
2018-04-23T06:30:46.037Z,99.99
2018-04-23T06:31:46.056Z,99.99
2018-04-23T06:32:46.074Z,99.99
2018-04-23T06:33:46.106Z,99.99
2018-04-23T06:34:46.108Z,99.99
2018-04-23T06:35:46.172Z,99.99
2018-04-23T06:36:46.143Z,99.62
2018-04-23T06:37:46.164Z,98.95
2018-04-23T06:38:46.186Z,99.19
2018-04-23T06:39:46.202Z,98.43
2018-04-23T06:40:46.224Z,97.85
2018-04-23T06:41:46.310Z,97.75
2018-04-23T06:42:46.257Z,98.52
2018-04-23T06:43:46.270Z,97.95
2018-04-23T06:44:46.292Z,96.99
2018-04-23T06:45:46.311Z,97.38
2018-04-23T06:46:46.327Z,97.09
2018-04-23T06:47:46.429Z,97.28
2018-04-23T06:48:46.365Z,97.18
2018-04-23T06:49:46.386Z,97.18
2018-04-23T06:50:46.406Z,97.75
2018-04-23T06:51:46.423Z,97.47
2018-04-23T06:52:46.440Z,97.09
2018-04-23T06:53:46.475Z,97.04
2018-04-23T06:54:46.480Z,97.47
2018-04-23T06:55:46.495Z,96.56
2018-04-23T06:56:46.520Z,96.56
2018-04-23T06:57:46.538Z,96.75
2018-04-23T06:58:46.553Z,95.31
2018-04-23T06:59:46.601Z,95.22
2018-04-23T07:00:46.591Z,95.22
2018-04-23T07:01:46.659Z,95.31
2018-04-23T07:02:46.642Z,94.74
2018-04-23T07:03:46.648Z,94.74
2018-04-23T07:04:46.702Z,94.74
2018-04-23T07:05:46.686Z,93.73
2018-04-23T07:06:46.705Z,94.59
2018-04-23T07:07:46.723Z,94.31
2018-04-23T07:08:46.738Z,93.93
2018-04-23T07:09:46.759Z,92.97
2018-04-23T07:10:46.773Z,92.44
2018-04-23T07:11:46.804Z,91.67
2018-04-23T07:12:46.813Z,92.15
2018-04-23T07:13:46.829Z,91.14
2018-04-23T07:14:46.852Z,89.51
2018-04-23T07:15:46.868Z,88.93
2018-04-23T07:16:46.898Z,88.02
2018-04-23T07:17:46.907Z,87.49
2018-04-23T07:18:46.924Z,86.52
2018-04-23T07:19:46.944Z,85.18
2018-04-23T07:20:46.967Z,85.37
2018-04-23T07:21:46.981Z,85.18
2018-04-23T07:22:47.046Z,84.41
2018-04-23T07:23:47.021Z,84.70
2018-04-23T07:24:47.046Z,83.78
2018-04-23T07:25:47.063Z,83.69
2018-04-23T07:26:47.080Z,83.69
2018-04-23T07:27:47.098Z,83.11
2018-04-23T07:28:47.195Z,82.86
2018-04-23T07:29:47.138Z,83.53
2018-04-23T07:30:47.161Z,83.15
2018-04-23T07:31:47.176Z,83.15
2018-04-23T07:32:47.197Z,81.46
2018-04-23T07:33:47.219Z,81.71
2018-04-23T07:34:47.298Z,81.42
2018-04-23T07:35:47.261Z,82.19
2018-04-23T07:36:47.273Z,82.38
2018-04-23T07:37:47.297Z,82.09
2018-04-23T07:38:47.319Z,81.23
2018-04-23T07:39:47.338Z,81.56
2018-04-23T07:40:47.422Z,80.21
2018-04-23T07:41:47.374Z,80.30
2018-04-23T07:42:47.398Z,79.48
2018-04-23T07:43:47.418Z,79.58
2018-04-23T07:44:47.439Z,79.48
2018-04-23T07:45:47.458Z,79.38
2018-04-23T07:46:47.544Z,79.25
2018-04-23T07:47:47.504Z,79.82
2018-04-23T07:48:47.528Z,80.69
2018-04-23T07:49:47.542Z,80.88
2018-04-23T07:50:47.556Z,79.67
2018-04-23T07:51:47.582Z,78.52
2018-04-23T07:52:47.661Z,79.03
2018-04-23T07:53:47.616Z,77.88
2018-04-23T07:54:47.642Z,78.08
2018-04-23T07:55:47.665Z,78.02
2018-04-23T07:56:47.688Z,76.13
2018-04-23T07:57:47.704Z,73.62
2018-04-23T07:58:47.733Z,73.18
2018-04-23T07:59:47.745Z,72.41
2018-04-23T08:00:47.767Z,72.99
2018-04-23T08:01:47.781Z,73.27
2018-04-23T08:02:47.812Z,74.18
2018-04-23T08:03:47.830Z,73.37
2018-04-23T08:04:47.895Z,74.05
2018-04-23T08:05:47.866Z,73.37
2018-04-23T08:06:47.901Z,73.21
2018-04-23T08:07:47.912Z,73.21
2018-04-23T08:08:47.934Z,72.06
2018-04-23T08:09:47.956Z,71.70
2018-04-23T08:10:47.986Z,72.19
2018-04-23T08:11:47.992Z,71.32
2018-04-23T08:12:48.016Z,71.22
2018-04-23T08:13:48.038Z,71.32
2018-04-23T08:14:48.070Z,72.22
2018-04-23T08:15:48.096Z,69.23
2018-04-23T08:16:48.107Z,70.16
2018-04-23T08:17:48.150Z,70.54
2018-04-23T08:18:48.143Z,70.29
2018-04-23T08:19:48.201Z,70.00
2018-04-23T08:20:48.207Z,70.97
2018-04-23T08:21:48.212Z,70.29
2018-04-23T08:22:48.238Z,69.74
2018-04-23T08:23:48.258Z,69.56
2018-04-23T08:24:48.281Z,67.82
2018-04-23T08:25:48.296Z,70.14
2018-04-23T08:26:48.317Z,69.20
2018-04-23T08:27:48.393Z,68.33
2018-04-23T08:28:48.370Z,68.04
2018-04-23T08:29:48.388Z,68.37
2018-04-23T08:30:48.415Z,66.08
2018-04-23T08:31:48.475Z,65.79
2018-04-23T08:32:48.456Z,66.95
2018-04-23T08:33:48.481Z,66.27
2018-04-23T08:34:48.499Z,65.20
2018-04-23T08:35:48.528Z,66.33
2018-04-23T08:36:48.542Z,66.37
2018-04-23T08:37:48.564Z,64.24
2018-04-23T08:38:48.596Z,65.59
2018-04-23T08:39:48.613Z,65.88
2018-04-23T08:40:48.635Z,64.34
2018-04-23T08:41:48.659Z,66.53
2018-04-23T08:42:48.687Z,67.30
2018-04-23T08:43:48.709Z,66.33
2018-04-23T08:44:48.732Z,66.14
2018-04-23T08:45:48.754Z,67.21
2018-04-23T08:46:48.774Z,65.98
2018-04-23T08:47:48.795Z,65.56
2018-04-23T08:48:48.820Z,65.20
2018-04-23T08:49:48.852Z,63.85
2018-04-23T08:50:48.867Z,65.59
2018-04-23T08:51:48.895Z,63.89
2018-04-23T08:52:48.924Z,64.07
2018-04-23T08:53:48.933Z,63.62
2018-04-23T08:54:48.957Z,64.11
2018-04-23T08:55:48.988Z,62.27
2018-04-23T08:56:49.007Z,62.95
2018-04-23T08:57:49.035Z,62.59
2018-04-23T08:58:49.059Z,62.04
2018-04-23T08:59:49.079Z,62.01
2018-04-23T09:00:49.103Z,62.04
2018-04-23T09:01:49.125Z,60.97
2018-04-23T09:02:49.150Z,60.91
2018-04-23T09:03:49.173Z,61.00
2018-04-23T09:04:49.200Z,60.71
2018-04-23T09:05:49.221Z,59.94
2018-04-23T09:06:49.244Z,61.49
2018-04-23T09:07:49.265Z,61.52
2018-04-23T09:08:49.296Z,59.94
2018-04-23T09:09:49.315Z,59.33
2018-04-23T09:10:49.339Z,61.65
2018-04-23T09:11:49.403Z,62.04
2018-04-23T09:12:49.391Z,60.88
2018-04-23T09:13:49.409Z,60.68
2018-04-23T09:14:49.498Z,62.23
2018-04-23T09:15:49.460Z,62.43
2018-04-23T09:16:49.487Z,62.33
2018-04-23T09:17:49.550Z,61.17
2018-04-23T09:18:49.529Z,62.26
2018-04-23T09:19:49.553Z,61.00
2018-04-23T09:20:49.597Z,59.55
2018-04-23T09:21:49.608Z,60.52
2018-04-23T09:22:49.629Z,59.06
2018-04-23T09:23:49.656Z,60.75
2018-04-23T09:24:49.709Z,62.88
2018-04-23T09:26:49.729Z,66.95
2018-04-23T09:27:49.752Z,65.79
2018-04-23T09:28:49.775Z,65.24
2018-04-23T09:29:49.803Z,63.89
2018-04-23T09:30:49.817Z,65.37
2018-04-23T09:31:49.850Z,62.37
2018-04-23T09:32:49.901Z,64.59
2018-04-23T09:33:49.893Z,63.04
2018-04-23T09:34:49.922Z,64.65
2018-04-23T09:35:49.943Z,62.19
2018-04-23T09:36:49.968Z,60.97
2018-04-23T09:37:49.994Z,60.80
2018-04-23T09:38:50.090Z,59.44
2018-04-23T09:39:50.041Z,58.47
2018-04-23T09:40:50.063Z,58.73
2018-04-23T09:41:50.091Z,58.50
2018-04-23T09:42:50.110Z,57.43
2018-04-23T09:43:50.140Z,56.62
2018-04-23T09:44:50.158Z,57.31
2018-04-23T09:45:50.180Z,56.34
2018-04-23T09:46:50.216Z,58.11
2018-04-23T09:47:50.231Z,58.50
2018-04-23T09:48:50.273Z,59.18
2018-04-23T09:49:50.347Z,57.43
2018-04-23T09:50:50.311Z,56.29
2018-04-23T09:51:50.333Z,54.93
2018-04-23T09:52:50.356Z,56.10
2018-04-23T09:53:50.386Z,55.35
2018-04-23T09:54:50.412Z,56.71
2018-04-23T09:55:50.437Z,55.93
2018-04-23T09:56:50.464Z,56.67
2018-04-23T09:57:50.482Z,54.23
2018-04-23T09:58:50.511Z,55.27
2018-04-23T09:59:50.534Z,54.50
2018-04-23T10:00:50.558Z,53.42
2018-04-23T10:01:50.590Z,51.48
2018-04-23T10:02:50.612Z,54.50
2018-04-23T10:03:50.643Z,55.30
2018-04-23T10:04:50.659Z,54.52
2018-04-23T10:05:50.690Z,52.38
2018-04-23T10:06:50.774Z,52.60
2018-04-23T10:07:50.741Z,50.78
2018-04-23T10:08:50.769Z,49.41
2018-04-23T10:09:50.793Z,51.95
2018-04-23T10:10:50.815Z,51.46
2018-04-23T10:11:50.844Z,51.75
2018-04-23T10:12:50.871Z,48.66
2018-04-23T10:13:50.898Z,47.63
2018-04-23T10:14:50.924Z,51.90
2018-04-23T10:15:50.942Z,48.97
2018-04-23T10:16:50.970Z,49.68
2018-04-23T10:17:50.999Z,50.92
2018-04-23T10:18:51.028Z,52.50
2018-04-23T10:19:51.054Z,52.50
2018-04-23T10:20:51.080Z,52.68
2018-04-23T10:21:51.098Z,49.46
2018-04-23T10:22:51.124Z,49.19
2018-04-23T10:23:51.152Z,48.80
2018-04-23T10:24:51.180Z,49.63
2018-04-23T10:25:51.211Z,51.09
2018-04-23T10:26:51.235Z,52.23
2018-04-23T10:27:51.267Z,50.99
2018-04-23T10:28:51.285Z,51.75
2018-04-23T10:29:51.325Z,52.75
2018-04-23T10:30:51.342Z,51.39
2018-04-23T10:31:51.365Z,52.45
2018-04-23T10:32:51.390Z,53.65
2018-04-23T10:33:51.435Z,54.23
2018-04-23T10:34:51.472Z,51.07
2018-04-23T10:35:51.467Z,50.70
2018-04-23T10:36:51.493Z,51.39
2018-04-23T10:37:51.525Z,50.56
2018-04-23T10:38:51.568Z,50.73
2018-04-23T10:39:51.574Z,52.38
2018-04-23T10:40:51.602Z,52.58
2018-04-23T10:41:51.630Z,53.16
2018-04-23T10:42:51.656Z,54.62
2018-04-23T10:43:51.688Z,53.48
2018-04-23T10:44:51.703Z,49.41
2018-04-23T10:45:51.734Z,48.34
2018-04-23T10:46:51.754Z,49.61
2018-04-23T10:47:51.787Z,49.99
2018-04-23T10:48:51.813Z,50.19
2018-04-23T10:49:51.837Z,50.85
2018-04-23T10:50:51.859Z,51.17
2018-04-23T10:51:51.947Z,49.07
2018-04-23T10:52:51.917Z,48.14
2018-04-23T10:53:51.941Z,51.46
2018-04-23T10:54:51.971Z,51.36
2018-04-23T10:55:51.993Z,50.97
2018-04-23T10:56:52.021Z,51.17
2018-04-23T10:57:52.046Z,50.78
2018-04-23T10:58:52.074Z,52.75
2018-04-23T10:59:52.107Z,51.51
2018-04-23T11:00:52.132Z,49.71
2018-04-23T11:01:52.227Z,49.73
2018-04-23T11:02:52.178Z,51.56
2018-04-23T11:03:52.203Z,49.83
2018-04-23T11:04:52.236Z,49.17
2018-04-23T11:05:52.408Z,47.61
2018-04-23T11:06:52.287Z,48.44
2018-04-23T11:07:52.308Z,49.27
2018-04-23T11:08:52.334Z,48.07
2018-04-23T11:09:52.368Z,49.29
2018-04-23T11:10:52.387Z,50.07
2018-04-23T11:11:52.422Z,50.09
2018-04-23T11:12:52.446Z,48.12
2018-04-23T11:13:52.471Z,50.95
2018-04-23T11:14:52.495Z,50.97
2018-04-23T11:15:52.557Z,49.24
2018-04-23T11:16:52.555Z,49.95
2018-04-23T11:17:52.585Z,48.39
2018-04-23T11:18:52.604Z,45.97
2018-04-23T11:19:52.685Z,47.14
2018-04-23T11:20:52.655Z,46.61
2018-04-23T11:21:52.687Z,49.61
2018-04-23T11:22:52.710Z,48.32
2018-04-23T11:23:52.740Z,49.76
2018-04-23T11:24:52.824Z,52.02
2018-04-23T11:25:52.793Z,49.24
2018-04-23T11:26:52.853Z,46.04
2018-04-23T11:27:52.845Z,45.65
2018-04-23T11:28:52.870Z,47.29
2018-04-23T11:29:52.896Z,47.07
2018-04-23T11:30:52.922Z,49.80
2018-04-23T11:31:52.960Z,47.46
2018-04-23T11:32:53.020Z,48.32
2018-04-23T11:33:53.000Z,50.19
2018-04-23T11:34:53.028Z,49.12
2018-04-23T11:35:53.092Z,46.70
2018-04-23T11:36:53.084Z,48.29
2018-04-23T11:37:53.113Z,47.24
2018-04-23T11:38:53.142Z,44.87
2018-04-23T11:39:53.162Z,46.63
2018-04-23T11:40:53.192Z,47.19
2018-04-23T11:41:53.223Z,48.46
2018-04-23T11:42:53.249Z,48.58
2018-04-23T11:43:53.272Z,50.21
2018-04-23T11:44:53.306Z,52.02
2018-04-23T11:45:53.326Z,51.65
2018-04-23T11:46:53.352Z,48.63
2018-04-23T11:47:53.393Z,48.17
2018-04-23T11:48:53.411Z,49.29
2018-04-23T11:49:53.434Z,49.46
2018-04-23T11:50:53.460Z,50.73
2018-04-23T11:51:53.487Z,52.28
2018-04-23T11:52:53.519Z,55.24
2018-04-23T11:53:53.545Z,57.90
2018-04-23T11:54:53.565Z,58.29
2018-04-23T11:55:53.608Z,58.74
2018-04-23T11:56:53.626Z,59.84
2018-04-23T11:57:53.644Z,59.19
2018-04-23T11:58:53.668Z,59.51
2018-04-23T11:59:53.697Z,58.54
2018-04-23T12:00:53.722Z,57.14
2018-04-23T12:01:53.832Z,56.90
2018-04-23T12:02:53.777Z,54.91
2018-04-23T12:03:53.805Z,54.65
2018-04-23T12:04:53.831Z,50.80
2018-04-23T12:05:53.856Z,51.12
2018-04-23T12:06:53.878Z,50.65
2018-04-23T12:07:53.901Z,53.58
2018-04-23T12:08:53.933Z,49.10
2018-04-23T12:09:53.959Z,51.82
2018-04-23T12:10:53.990Z,50.07
2018-04-23T12:11:54.013Z,50.36
2018-04-23T12:12:54.039Z,49.02
2018-04-23T12:13:54.062Z,49.93
2018-04-23T12:14:54.084Z,48.46
2018-04-23T12:15:54.111Z,49.39
2018-04-23T12:16:54.139Z,51.78
2018-04-23T12:17:54.175Z,49.46
2018-04-23T12:18:54.270Z,48.22
2018-04-23T12:19:54.218Z,48.65
2018-04-23T12:20:54.253Z,47.43
2018-04-23T12:21:54.269Z,46.70
2018-04-23T12:22:54.302Z,49.80
2018-04-23T12:23:54.328Z,48.14
2018-04-23T12:24:54.352Z,48.80
2018-04-23T12:25:54.381Z,47.85
2018-04-23T12:26:54.416Z,49.46
2018-04-23T12:27:54.433Z,49.95
2018-04-23T12:28:54.462Z,50.63
2018-04-23T12:29:54.481Z,49.32
2018-04-23T12:30:54.602Z,50.70
2018-04-23T12:31:54.544Z,50.85
2018-04-23T12:32:54.567Z,49.12
2018-04-23T12:33:54.595Z,50.97
2018-04-23T12:34:54.616Z,51.48
2018-04-23T12:35:54.650Z,49.88
2018-04-23T12:36:54.675Z,51.51
2018-04-23T12:37:54.703Z,52.04
2018-04-23T12:38:54.730Z,53.09
2018-04-23T12:39:54.750Z,53.44
2018-04-23T12:40:54.780Z,49.10
2018-04-23T12:41:54.811Z,48.44
2018-04-23T12:42:54.837Z,47.71
2018-04-23T12:43:54.862Z,50.99
2018-04-23T12:44:54.892Z,51.31
2018-04-23T12:45:54.955Z,49.22
2018-04-23T12:46:54.944Z,49.10
2018-04-23T12:48:54.995Z,49.27
2018-04-23T12:49:55.025Z,49.56
2018-04-23T12:50:55.053Z,51.80
2018-04-23T12:51:55.082Z,50.87
2018-04-23T12:52:55.121Z,52.02
2018-04-23T12:53:55.134Z,51.09
2018-04-23T12:54:55.157Z,51.41
2018-04-23T12:55:55.186Z,49.85